createdAt,value
2022-10-28T00:00:16.015Z,17.22
2022-10-28T00:02:44.016Z,17.27
2022-10-28T00:05:11.880Z,17.20
2022-10-28T00:07:39.588Z,17.25
2022-10-28T00:10:08.450Z,17.30
2022-10-28T00:12:39.359Z,17.33
2022-10-28T00:15:08.330Z,17.38
2022-10-28T00:17:37.379Z,17.37
2022-10-28T00:20:05.738Z,17.36
2022-10-28T00:22:33.428Z,17.33
2022-10-28T00:25:01.084Z,17.30
2022-10-28T00:27:29.716Z,17.29
2022-10-28T00:29:57.393Z,17.27
2022-10-28T00:32:25.065Z,17.29
2022-10-28T00:34:54.064Z,17.28
2022-10-28T00:37:21.844Z,17.27
2022-10-28T00:39:49.516Z,17.29
2022-10-28T00:42:20.359Z,17.28
2022-10-28T00:44:54.201Z,17.31
2022-10-28T00:47:32.381Z,17.27
2022-10-28T00:50:07.324Z,17.34
2022-10-28T00:52:35.076Z,17.32
2022-10-28T00:55:03.692Z,17.27
2022-10-28T00:57:33.132Z,17.21
2022-10-28T01:00:03.466Z,17.31
2022-10-28T01:02:34.706Z,17.33
2022-10-28T01:05:04.272Z,17.21
2022-10-28T01:07:32.144Z,17.26
2022-10-28T01:09:59.878Z,17.23
2022-10-28T01:12:33.502Z,17.29
2022-10-28T01:15:06.221Z,17.35
2022-10-28T01:17:50.541Z,17.28
2022-10-28T01:20:41.023Z,17.30
2022-10-28T01:23:15.045Z,17.35
2022-10-28T01:26:09.960Z,17.26
2022-10-28T01:29:08.909Z,17.22
2022-10-28T01:31:41.155Z,17.20
2022-10-28T01:34:20.573Z,17.29
2022-10-28T01:36:55.909Z,17.19
2022-10-28T01:39:29.856Z,17.18
2022-10-28T01:42:01.765Z,17.08
2022-10-28T01:44:32.468Z,17.04
2022-10-28T01:47:05.682Z,17.03
2022-10-28T01:49:39.201Z,17.05
2022-10-28T01:52:10.340Z,17.16
2022-10-28T01:54:39.613Z,17.19
2022-10-28T01:57:07.332Z,17.08
2022-10-28T01:59:35.752Z,17.20
2022-10-28T02:02:04.868Z,17.19
2022-10-28T02:04:32.759Z,17.07
2022-10-28T02:07:01.721Z,17.05
2022-10-28T02:09:38.915Z,17.06
2022-10-28T02:12:27.605Z,17.07
2022-10-28T02:15:16.065Z,17.11
2022-10-28T02:17:52.346Z,17.09
2022-10-28T02:20:29.922Z,17.06
2022-10-28T02:23:04.515Z,17.14
2022-10-28T02:25:34.620Z,17.20
2022-10-28T02:28:06.107Z,17.15
2022-10-28T02:30:38.241Z,17.13
2022-10-28T02:33:12.012Z,17.10
2022-10-28T02:35:40.839Z,17.09
2022-10-28T02:38:11.671Z,17.11
2022-10-28T02:40:40.321Z,17.16
2022-10-28T02:43:10.308Z,17.14
2022-10-28T02:45:41.236Z,17.09
2022-10-28T02:48:14.282Z,17.12
2022-10-28T02:50:46.021Z,17.21
2022-10-28T02:53:17.134Z,17.19
2022-10-28T02:55:46.737Z,17.22
2022-10-28T02:58:14.444Z,17.16
2022-10-28T03:00:45.049Z,17.14
2022-10-28T03:03:14.537Z,17.09
2022-10-28T03:05:42.243Z,17.02
2022-10-28T03:08:09.929Z,17.16
2022-10-28T03:10:37.588Z,17.16
2022-10-28T03:13:05.327Z,17.15
2022-10-28T03:15:33.002Z,17.03
2022-10-28T03:18:00.701Z,16.99
2022-10-28T03:20:31.054Z,17.07
2022-10-28T03:22:58.885Z,17.06
2022-10-28T03:25:26.614Z,17.14
2022-10-28T03:27:54.314Z,17.14
2022-10-28T03:30:22.037Z,17.13
2022-10-28T03:32:49.713Z,17.02
2022-10-28T03:35:17.801Z,16.95
2022-10-28T03:37:46.832Z,16.94
2022-10-28T03:40:14.644Z,17.01
2022-10-28T03:42:42.606Z,17.05
2022-10-28T03:45:11.533Z,17.13
2022-10-28T03:47:39.300Z,17.09
2022-10-28T03:50:07.973Z,17.02
2022-10-28T03:52:35.713Z,17.03
2022-10-28T03:55:05.401Z,16.98
2022-10-28T03:57:33.687Z,17.04
2022-10-28T04:00:01.402Z,17.03
2022-10-28T04:02:30.186Z,16.98
2022-10-28T04:04:58.008Z,16.91
2022-10-28T04:07:25.760Z,16.99
2022-10-28T04:09:53.497Z,16.84
2022-10-28T04:12:22.620Z,16.85
2022-10-28T04:14:50.388Z,16.89
2022-10-28T04:17:18.149Z,16.83
2022-10-28T04:19:45.913Z,16.84
2022-10-28T04:22:13.738Z,16.90
2022-10-28T04:24:41.448Z,16.94
2022-10-28T04:27:09.197Z,16.90
2022-10-28T04:29:38.342Z,16.89
2022-10-28T04:32:06.867Z,16.86
2022-10-28T04:34:34.612Z,16.88
2022-10-28T04:37:02.380Z,16.88
2022-10-28T04:39:31.481Z,16.87
2022-10-28T04:41:59.213Z,16.98
2022-10-28T04:44:26.991Z,16.90
2022-10-28T04:46:57.781Z,16.89
2022-10-28T04:49:25.689Z,16.80
2022-10-28T04:51:53.507Z,16.82
2022-10-28T04:54:21.265Z,16.87
2022-10-28T04:56:49.072Z,16.75
2022-10-28T04:59:16.868Z,16.71
2022-10-28T05:01:44.695Z,16.79
2022-10-28T05:04:13.955Z,16.83
2022-10-28T05:06:41.778Z,16.90
2022-10-28T05:09:09.517Z,16.90
2022-10-28T05:11:37.275Z,16.87
2022-10-28T05:14:05.185Z,16.84
2022-10-28T05:16:32.983Z,16.83
2022-10-28T05:19:00.902Z,16.73
2022-10-28T05:21:30.047Z,16.78
2022-10-28T05:23:58.217Z,16.80
2022-10-28T05:26:26.041Z,16.82
2022-10-28T05:28:53.778Z,16.81
2022-10-28T05:31:21.526Z,16.92
2022-10-28T05:33:49.226Z,16.87
2022-10-28T05:36:17.202Z,16.81
2022-10-28T05:38:46.450Z,16.82
2022-10-28T05:41:14.402Z,16.83
2022-10-28T05:43:42.162Z,16.83
2022-10-28T05:46:10.791Z,16.82
2022-10-28T05:48:38.538Z,16.80
2022-10-28T05:51:06.526Z,16.69
2022-10-28T05:53:34.249Z,16.59
2022-10-28T05:56:05.563Z,16.67
2022-10-28T05:58:33.318Z,16.69
2022-10-28T06:01:03.920Z,16.70
2022-10-28T06:03:31.756Z,16.75
2022-10-28T06:05:59.796Z,16.67
2022-10-28T06:08:27.794Z,16.74
2022-10-28T06:10:54.622Z,16.73
2022-10-28T06:13:23.923Z,16.72
2022-10-28T06:15:51.808Z,16.60
2022-10-28T06:18:19.836Z,16.63
2022-10-28T06:20:52.049Z,16.47
2022-10-28T06:23:19.814Z,16.63
2022-10-28T06:25:47.644Z,16.62
2022-10-28T06:28:15.445Z,16.64
2022-10-28T06:30:44.597Z,16.70
2022-10-28T06:33:12.352Z,16.73
2022-10-28T06:35:40.074Z,16.74
2022-10-28T06:38:09.604Z,16.70
2022-10-28T06:40:37.657Z,16.67
2022-10-28T06:43:06.586Z,16.74
2022-10-28T06:45:34.777Z,16.71
2022-10-28T06:48:07.338Z,16.73
2022-10-28T06:50:36.688Z,16.66
2022-10-28T06:53:04.574Z,16.73
2022-10-28T06:55:32.536Z,16.67
2022-10-28T06:58:00.648Z,16.68
2022-10-28T07:03:05.899Z,16.72
2022-10-28T07:05:34.007Z,16.68
2022-10-28T07:08:03.117Z,16.68
2022-10-28T07:10:30.943Z,16.57
2022-10-28T07:12:58.667Z,16.51
2022-10-28T07:15:26.383Z,16.48
2022-10-28T07:17:54.675Z,16.44
2022-10-28T07:20:25.815Z,16.57
2022-10-28T07:22:57.045Z,16.48
2022-10-28T07:25:24.810Z,16.52
2022-10-28T07:27:53.004Z,16.63
2022-10-28T07:30:21.018Z,16.60
2022-10-28T07:32:48.788Z,16.61
2022-10-28T07:35:16.808Z,16.66
2022-10-28T07:37:45.902Z,16.71
2022-10-28T07:40:14.169Z,16.73
2022-10-28T07:42:41.896Z,16.74
2022-10-28T07:45:10.264Z,16.68
2022-10-28T07:47:37.955Z,16.77
2022-10-28T07:50:07.049Z,16.73
2022-10-28T07:52:35.292Z,16.78
2022-10-28T07:55:05.073Z,16.82
2022-10-28T07:57:32.996Z,16.81
2022-10-28T08:00:00.708Z,16.79
2022-10-28T08:02:29.713Z,16.86
2022-10-28T08:04:57.439Z,16.93
2022-10-28T08:07:25.161Z,16.94
2022-10-28T08:09:53.273Z,16.99
2022-10-28T08:12:22.309Z,17.07
2022-10-28T08:14:50.696Z,17.12
2022-10-28T08:17:18.353Z,17.19
2022-10-28T08:19:46.014Z,17.22
2022-10-28T08:22:13.735Z,17.30
2022-10-28T08:24:41.524Z,17.36
2022-10-28T08:27:09.219Z,17.39
2022-10-28T08:29:38.391Z,17.44
2022-10-28T08:32:08.887Z,17.54
2022-10-28T08:34:39.351Z,17.59
2022-10-28T08:37:10.379Z,17.69
2022-10-28T08:39:41.248Z,17.75
2022-10-28T08:42:23.444Z,17.90
2022-10-28T08:45:04.928Z,17.97
2022-10-28T08:47:40.170Z,17.99
2022-10-28T08:50:13.856Z,18.03
2022-10-28T08:52:44.948Z,18.16
2022-10-28T08:55:15.684Z,18.32
2022-10-28T08:57:45.611Z,18.33
2022-10-28T09:00:22.010Z,18.41
2022-10-28T09:02:59.106Z,18.51
2022-10-28T09:05:28.212Z,18.57
2022-10-28T09:07:56.743Z,18.66
2022-10-28T09:10:37.676Z,18.69
2022-10-28T09:13:12.095Z,18.73
2022-10-28T09:15:47.729Z,18.77
2022-10-28T09:18:19.520Z,18.89
2022-10-28T09:20:53.174Z,18.87
2022-10-28T09:23:24.319Z,19.04
2022-10-28T09:26:00.996Z,19.24
2022-10-28T09:28:40.380Z,19.22
2022-10-28T09:31:14.422Z,19.24
2022-10-28T09:33:50.807Z,19.24
2022-10-28T09:36:22.520Z,19.32
2022-10-28T09:38:52.670Z,19.47
2022-10-28T09:41:22.706Z,19.34
2022-10-28T09:43:53.064Z,19.55
2022-10-28T09:46:23.377Z,19.45
2022-10-28T09:48:52.680Z,19.45
2022-10-28T09:51:28.093Z,19.68
2022-10-28T09:53:58.194Z,19.70
2022-10-28T09:56:26.668Z,19.72
2022-10-28T09:58:55.494Z,19.71
2022-10-28T10:01:24.734Z,19.85
2022-10-28T10:03:53.324Z,19.77
2022-10-28T10:06:25.095Z,19.99
2022-10-28T10:08:53.149Z,19.95
2022-10-28T10:11:27.508Z,20.02
2022-10-28T10:13:56.563Z,20.11
2022-10-28T10:16:35.638Z,20.23
2022-10-28T10:19:04.508Z,20.28
2022-10-28T10:21:43.807Z,20.28
2022-10-28T10:24:25.197Z,20.31
2022-10-28T10:26:53.742Z,20.43
2022-10-28T10:29:21.973Z,20.31
2022-10-28T10:32:05.149Z,20.47
2022-10-28T10:34:33.445Z,20.47
2022-10-28T10:39:37.632Z,20.42
2022-10-28T10:42:16.342Z,20.45
2022-10-28T10:44:45.356Z,20.65
2022-10-28T10:47:23.460Z,20.46
2022-10-28T10:49:52.038Z,20.52
2022-10-28T10:52:23.614Z,20.63
2022-10-28T10:55:00.108Z,20.58
2022-10-28T10:57:29.988Z,20.62
2022-10-28T10:59:58.131Z,20.65
2022-10-28T11:02:29.259Z,20.78
2022-10-28T11:04:59.718Z,20.78
2022-10-28T11:07:28.907Z,20.69
2022-10-28T11:09:56.755Z,20.68
2022-10-28T11:12:30.158Z,20.89
2022-10-28T11:14:59.279Z,20.77
2022-10-28T11:17:29.893Z,20.90
2022-10-28T11:19:58.756Z,21.00
2022-10-28T11:22:37.405Z,20.92
2022-10-28T11:25:34.657Z,21.11
2022-10-28T11:28:12.364Z,21.14
2022-10-28T11:30:47.767Z,21.13
2022-10-28T11:33:35.017Z,21.03
2022-10-28T11:36:12.776Z,20.86
2022-10-28T11:38:54.860Z,21.10
2022-10-28T11:41:32.834Z,21.01
2022-10-28T11:44:05.021Z,20.95
2022-10-28T11:46:39.149Z,21.12
2022-10-28T11:49:44.317Z,21.09
2022-10-28T11:52:21.830Z,21.06
2022-10-28T11:55:02.947Z,21.11
2022-10-28T11:57:39.322Z,21.17
2022-10-28T12:00:39.650Z,21.11
2022-10-28T12:03:22.168Z,21.13
2022-10-28T12:05:55.965Z,20.99
2022-10-28T12:08:36.061Z,21.17
2022-10-28T12:11:19.511Z,21.19
2022-10-28T12:13:52.253Z,21.20
2022-10-28T12:16:25.992Z,21.21
2022-10-28T12:18:56.801Z,21.25
2022-10-28T12:21:32.353Z,21.24
2022-10-28T12:24:00.586Z,21.31
2022-10-28T12:26:35.430Z,21.26
2022-10-28T12:29:05.243Z,21.41
2022-10-28T12:31:35.691Z,21.45
2022-10-28T12:34:07.067Z,21.50
2022-10-28T12:36:39.925Z,21.38
2022-10-28T12:39:14.062Z,21.44
2022-10-28T12:41:48.755Z,21.46
2022-10-28T12:44:20.131Z,21.45
2022-10-28T12:46:54.478Z,21.46
2022-10-28T12:49:26.671Z,21.48
2022-10-28T12:51:56.988Z,21.47
2022-10-28T12:54:29.645Z,21.26
2022-10-28T12:57:03.044Z,21.38
2022-10-28T12:59:33.469Z,21.42
2022-10-28T13:02:02.611Z,21.35
2022-10-28T13:04:30.611Z,21.46
2022-10-28T13:07:27.967Z,21.57
2022-10-28T13:10:06.035Z,21.57
2022-10-28T13:12:57.859Z,21.52
2022-10-28T13:16:25.691Z,21.63
2022-10-28T13:19:11.211Z,21.60
2022-10-28T13:22:05.888Z,21.65
2022-10-28T13:24:42.009Z,21.60
2022-10-28T13:27:13.463Z,21.66
2022-10-28T13:29:42.956Z,21.60
2022-10-28T13:32:32.778Z,21.61
2022-10-28T13:35:12.442Z,21.70
2022-10-28T13:37:40.969Z,21.58
2022-10-28T13:40:22.359Z,21.61
2022-10-28T13:42:50.548Z,21.57
2022-10-28T13:45:48.169Z,21.53
2022-10-28T13:48:47.883Z,21.50
2022-10-28T13:51:31.533Z,21.48
2022-10-28T13:53:59.420Z,21.46
2022-10-28T13:56:39.700Z,21.43
2022-10-28T13:59:19.813Z,21.41
2022-10-28T14:02:02.226Z,21.40
2022-10-28T14:04:37.315Z,21.36
2022-10-28T14:07:21.554Z,21.32
2022-10-28T14:09:52.477Z,21.33
2022-10-28T14:12:26.113Z,21.30
2022-10-28T14:14:58.351Z,21.30
2022-10-28T14:17:28.870Z,21.28
2022-10-28T14:19:56.715Z,21.27
2022-10-28T14:22:32.926Z,21.22
2022-10-28T14:25:00.923Z,21.21
2022-10-28T14:27:32.603Z,21.23
2022-10-28T14:30:25.934Z,21.19
2022-10-28T14:33:27.411Z,21.15
2022-10-28T14:36:08.439Z,21.18
2022-10-28T14:39:11.333Z,21.15
2022-10-28T14:41:46.617Z,21.14
2022-10-28T14:44:31.909Z,21.14
2022-10-28T14:47:11.736Z,21.07
2022-10-28T14:49:40.318Z,21.11
2022-10-28T14:52:10.924Z,21.12
2022-10-28T14:54:44.829Z,21.07
2022-10-28T14:57:12.653Z,21.03
2022-10-28T14:59:44.282Z,21.02
2022-10-28T15:02:14.145Z,21.00
2022-10-28T15:04:44.072Z,21.03
2022-10-28T15:07:14.096Z,21.02
2022-10-28T15:09:43.285Z,20.99
2022-10-28T15:12:12.397Z,20.97
2022-10-28T15:14:42.960Z,20.94
2022-10-28T15:17:14.081Z,20.93
2022-10-28T15:19:42.385Z,20.91
2022-10-28T15:22:21.057Z,20.88
2022-10-28T15:25:00.056Z,20.85
2022-10-28T15:27:30.180Z,20.84
2022-10-28T15:29:59.314Z,20.85
2022-10-28T15:32:29.740Z,20.84
2022-10-28T15:34:57.599Z,20.79
2022-10-28T15:37:27.679Z,20.83
2022-10-28T15:40:12.891Z,20.78
2022-10-28T15:42:42.575Z,20.75
2022-10-28T15:45:19.622Z,20.75
2022-10-28T15:47:48.256Z,20.80
2022-10-28T15:50:27.298Z,20.78
2022-10-28T15:52:57.520Z,20.80
2022-10-28T15:55:41.698Z,20.77
2022-10-28T15:58:33.700Z,20.74
2022-10-28T16:01:02.887Z,20.72
2022-10-28T16:03:43.570Z,20.68
2022-10-28T16:06:23.236Z,20.63
2022-10-28T16:09:00.753Z,20.60
2022-10-28T16:11:28.780Z,20.65
2022-10-28T16:13:56.492Z,20.61
2022-10-28T16:16:26.958Z,20.61
2022-10-28T16:19:10.351Z,20.67
2022-10-28T16:21:39.134Z,20.65
2022-10-28T16:24:07.920Z,20.50
2022-10-28T16:26:38.122Z,20.61
2022-10-28T16:29:05.848Z,20.55
2022-10-28T16:31:35.345Z,20.61
2022-10-28T16:34:03.066Z,20.60
2022-10-28T16:36:32.133Z,20.62
2022-10-28T16:38:59.786Z,20.63
2022-10-28T16:41:27.687Z,20.55
2022-10-28T16:43:55.937Z,20.49
2022-10-28T16:46:23.797Z,20.44
2022-10-28T16:48:52.867Z,20.53
2022-10-28T16:51:20.580Z,20.58
2022-10-28T16:53:49.587Z,20.48
2022-10-28T16:56:18.024Z,20.58
2022-10-28T16:58:46.155Z,20.46
2022-10-28T17:01:22.072Z,20.42
2022-10-28T17:03:49.875Z,20.50
2022-10-28T17:06:18.903Z,20.46
2022-10-28T17:09:02.372Z,20.50
2022-10-28T17:14:07.342Z,20.43
2022-10-28T17:16:38.029Z,20.43
2022-10-28T17:19:08.368Z,20.44
2022-10-28T17:21:37.427Z,20.48
2022-10-28T17:24:05.668Z,20.39
2022-10-28T17:26:33.355Z,20.41
2022-10-28T17:29:03.053Z,20.42
2022-10-28T17:31:30.758Z,20.43
2022-10-28T17:33:58.500Z,20.37
2022-10-28T17:36:27.198Z,20.51
2022-10-28T17:38:57.246Z,20.47
2022-10-28T17:41:25.253Z,20.50
2022-10-28T17:43:53.954Z,20.44
2022-10-28T17:46:21.987Z,20.41
2022-10-28T17:48:50.269Z,20.38
2022-10-28T17:51:20.046Z,20.45
2022-10-28T17:53:47.771Z,20.45
2022-10-28T17:56:16.846Z,20.44
2022-10-28T17:58:44.556Z,20.43
2022-10-28T18:01:12.601Z,20.44
2022-10-28T18:03:40.460Z,20.42
2022-10-28T18:06:11.321Z,20.43
2022-10-28T18:08:40.229Z,20.47
2022-10-28T18:11:09.702Z,20.38
2022-10-28T18:13:39.875Z,20.42
2022-10-28T18:16:09.443Z,20.42
2022-10-28T18:18:42.013Z,20.40
2022-10-28T18:21:11.203Z,20.29
2022-10-28T18:23:39.284Z,20.27
2022-10-28T18:26:08.543Z,20.38
2022-10-28T18:28:36.894Z,20.31
2022-10-28T18:31:07.487Z,20.39
2022-10-28T18:33:36.095Z,20.38
2022-10-28T18:36:05.677Z,20.30
2022-10-28T18:38:34.090Z,20.40
2022-10-28T18:41:02.493Z,20.47
2022-10-28T18:43:30.370Z,20.39
2022-10-28T18:46:01.095Z,20.36
2022-10-28T18:48:33.350Z,20.40
2022-10-28T18:51:09.301Z,20.32
2022-10-28T18:53:37.741Z,20.42
2022-10-28T18:56:06.594Z,20.38
2022-10-28T18:58:34.771Z,20.31
2022-10-28T19:01:07.330Z,20.29
2022-10-28T19:03:36.673Z,20.37
2022-10-28T19:06:06.146Z,20.41
2022-10-28T19:08:34.199Z,20.42
2022-10-28T19:11:03.608Z,20.32
2022-10-28T19:13:33.434Z,20.42
2022-10-28T19:16:01.417Z,20.34
2022-10-28T19:18:35.209Z,20.42
2022-10-28T19:21:05.471Z,20.35
2022-10-28T19:23:33.323Z,20.38
2022-10-28T19:26:03.414Z,20.28
2022-10-28T19:28:31.519Z,20.39
2022-10-28T19:31:03.040Z,20.40
2022-10-28T19:33:31.562Z,20.32
2022-10-28T19:36:04.831Z,20.30
2022-10-28T19:38:33.666Z,20.39
2022-10-28T19:41:06.186Z,20.31
2022-10-28T19:43:34.186Z,20.22
2022-10-28T19:46:06.313Z,20.27
2022-10-28T19:48:34.179Z,20.26
2022-10-28T19:51:02.582Z,20.29
2022-10-28T19:53:31.670Z,20.31
2022-10-28T19:56:00.548Z,20.16
2022-10-28T19:58:30.469Z,20.18
2022-10-28T20:00:59.953Z,20.29
2022-10-28T20:03:31.485Z,20.26
2022-10-28T20:06:06.725Z,20.25
2022-10-28T20:08:36.796Z,20.21
2022-10-28T20:11:06.123Z,20.21
2022-10-28T20:13:34.683Z,20.12
2022-10-28T20:16:03.877Z,20.22
2022-10-28T20:18:32.128Z,20.18
2022-10-28T20:21:04.960Z,20.26
2022-10-28T20:23:33.125Z,20.14
2022-10-28T20:26:03.010Z,20.11
2022-10-28T20:28:30.762Z,20.20
2022-10-28T20:31:00.584Z,20.21
2022-10-28T20:33:30.484Z,20.19
2022-10-28T20:35:58.475Z,20.13
2022-10-28T20:38:26.591Z,20.08
2022-10-28T20:40:55.696Z,20.03
2022-10-28T20:43:26.061Z,20.04
2022-10-28T20:45:58.595Z,19.93
2022-10-28T20:48:27.098Z,19.96
2022-10-28T20:50:56.318Z,20.12
2022-10-28T20:53:25.563Z,20.03
2022-10-28T20:55:54.542Z,20.15
2022-10-28T20:58:24.943Z,20.00
2022-10-28T21:00:53.618Z,20.00
2022-10-28T21:03:21.711Z,20.06
2022-10-28T21:05:49.570Z,19.95
2022-10-28T21:08:17.251Z,19.91
2022-10-28T21:10:44.906Z,19.90
2022-10-28T21:13:12.628Z,19.89
2022-10-28T21:15:42.007Z,19.76
2022-10-28T21:18:09.764Z,19.87
2022-10-28T21:20:38.731Z,19.93
2022-10-28T21:23:07.091Z,19.94
2022-10-28T21:25:35.063Z,19.88
2022-10-28T21:28:03.914Z,19.83
2022-10-28T21:30:31.818Z,19.87
2022-10-28T21:33:00.823Z,19.90
2022-10-28T21:35:28.503Z,19.90
2022-10-28T21:37:57.107Z,19.97
2022-10-28T21:40:25.075Z,19.92
2022-10-28T21:42:52.745Z,19.75
2022-10-28T21:45:24.109Z,19.86
2022-10-28T21:47:55.449Z,19.89
2022-10-28T21:50:24.818Z,19.92
2022-10-28T21:52:52.534Z,19.99
2022-10-28T21:55:26.834Z,19.89
2022-10-28T21:58:01.528Z,19.79
2022-10-28T22:00:30.908Z,19.84
2022-10-28T22:02:58.613Z,19.97
2022-10-28T22:05:27.701Z,19.90
2022-10-28T22:07:55.810Z,19.86
2022-10-28T22:10:23.692Z,19.89
2022-10-28T22:12:51.386Z,19.72
2022-10-28T22:15:19.063Z,19.68
2022-10-28T22:17:46.824Z,19.64
2022-10-28T22:20:16.239Z,19.73
2022-10-28T22:22:45.394Z,19.86
2022-10-28T22:25:13.083Z,19.76
2022-10-28T22:27:42.423Z,19.71
2022-10-28T22:30:12.299Z,19.73
2022-10-28T22:32:40.159Z,19.60
2022-10-28T22:35:11.308Z,19.78
2022-10-28T22:37:39.281Z,19.72
2022-10-28T22:40:10.079Z,19.73
2022-10-28T22:42:38.156Z,19.75
2022-10-28T22:45:06.921Z,19.56
2022-10-28T22:47:35.047Z,19.76
2022-10-28T22:50:04.290Z,19.67
2022-10-28T22:52:32.104Z,19.62
2022-10-28T22:55:00.184Z,19.68
2022-10-28T22:57:31.327Z,19.71
2022-10-28T22:59:59.206Z,19.59
2022-10-28T23:02:27.412Z,19.59
2022-10-28T23:04:55.548Z,19.56
2022-10-28T23:07:23.372Z,19.67
2022-10-28T23:09:54.089Z,19.76
2022-10-28T23:12:22.114Z,19.63
2022-10-28T23:14:54.174Z,19.64
2022-10-28T23:17:21.912Z,19.87
2022-10-28T23:19:49.673Z,19.68
2022-10-28T23:22:17.395Z,19.65
2022-10-28T23:24:47.663Z,19.54
2022-10-28T23:27:15.408Z,19.52
2022-10-28T23:29:43.287Z,19.52
2022-10-28T23:32:12.626Z,19.61
2022-10-28T23:34:40.424Z,19.54
2022-10-28T23:37:11.061Z,19.42
2022-10-28T23:39:38.874Z,19.42
2022-10-28T23:42:06.813Z,19.47
2022-10-28T23:44:34.706Z,19.51
2022-10-28T23:47:03.068Z,19.62
2022-10-28T23:49:32.301Z,19.58
2022-10-28T23:52:00.097Z,19.67
2022-10-28T23:54:27.875Z,19.70
2022-10-28T23:56:55.616Z,19.47
2022-10-28T23:59:26.269Z,19.57
